Mertzig, Luxembourg
Current Conditions -  °F | °C
As of 5:20 PM on Sunday 25 Jan 2015 (Local Time) from ELLX Reporting Station
Light Snow Light Snow  
Wind Chill: 30°   Ceiling: 300
Heat Index: 34°   Visibility: 0.93mi
Dew Point: 32°   Wind: 5mph
Humidity: 93%   Direction: 250°WSW
Pressure: 30.39"   Gusts: NA
Location:  49.83°N, 6.01°E
Report Text: ELLX 251620Z 25004KT 1500 R24/P1500N -SN BR SCT001 BKN003 BKN007 01/00 Q1029 TEMPO 1500 -SN
Loading
Personal Weather Stations






























Interactive Weather Map New forecast layout! Learn more

10-Day Weather Forecast

Advertisements
Track Severe Weather on mobile